Time;durP1;ratioP1;P1;durP2;ratioP2;P2;SDS_P1;SDS_P2;PMS_P1;PMS_P2;Temp;Humidity;BMP_temperature;BMP_pressure;BME280_temperature;BME280_humidity;BME280_pressure;Samples;Min_cycle;Max_cycle;Signal;HPM_P1;HPM_P2
2023/10/16 00:00:29;;;;;;;3.17;2.35;;;;;;;;;;4987579;28;20103;-69
2023/10/16 00:02:59;;;;;;;3.72;2.30;;;;;;;;;;5004152;28;20111;-69
2023/10/16 00:05:25;;;;;;;3.03;2.00;;;;;;;;;;5004051;28;20026;-69
2023/10/16 00:07:50;;;;;;;3.05;2.20;;;;;;;;;;4996095;28;20561;-69
2023/10/16 00:10:16;;;;;;;2.90;1.90;;;;;;;;;;5002765;28;20073;-69
2023/10/16 00:12:42;;;;;;;3.72;2.30;;;;;;;;;;5004121;28;20284;-69
2023/10/16 00:15:08;;;;;;;4.30;2.50;;;;;;;;;;5004328;28;20118;-70
2023/10/16 00:17:33;;;;;;;3.55;2.10;;;;;;;;;;5002000;28;20420;-69
2023/10/16 00:19:58;;;;;;;3.83;2.27;;;;;;;;;;4985795;28;20054;-69
2023/10/16 00:22:25;;;;;;;2.30;1.80;;;;;;;;;;4999767;28;20703;-69
2023/10/16 00:24:51;;;;;;;3.17;1.88;;;;;;;;;;4998139;28;20425;-69
2023/10/16 00:27:16;;;;;;;3.53;1.80;;;;;;;;;;4990586;28;20113;-69
2023/10/16 00:29:42;;;;;;;2.97;1.90;;;;;;;;;;4985371;28;20124;-69
2023/10/16 00:32:07;;;;;;;3.97;1.60;;;;;;;;;;4997168;28;20041;-69
2023/10/16 00:34:33;;;;;;;2.42;1.88;;;;;;;;;;5010700;28;20091;-70
2023/10/16 00:37:01;;;;;;;2.60;1.85;;;;;;;;;;5008849;28;20052;-68
2023/10/16 00:39:28;;;;;;;3.75;1.40;;;;;;;;;;4996142;28;20159;-68
2023/10/16 00:41:54;;;;;;;3.97;1.70;;;;;;;;;;4991621;28;20137;-68
2023/10/16 00:44:22;;;;;;;2.30;1.45;;;;;;;;;;4988070;28;20111;-68
2023/10/16 00:46:49;;;;;;;3.45;1.58;;;;;;;;;;4996947;28;20121;-68
2023/10/16 00:49:15;;;;;;;3.05;1.48;;;;;;;;;;5021696;28;20730;-68
2023/10/16 00:51:41;;;;;;;2.70;1.45;;;;;;;;;;5005374;28;20046;-68
2023/10/16 00:54:16;;;;;;;2.35;1.65;;;;;;;;;;5021045;28;20060;-68
2023/10/16 00:56:45;;;;;;;2.17;1.40;;;;;;;;;;5022768;28;20468;-68
2023/10/16 00:59:15;;;;;;;2.08;1.27;;;;;;;;;;4997963;28;20104;-68
2023/10/16 01:01:43;;;;;;;1.80;1.20;;;;;;;;;;5002902;28;20034;-68
2023/10/16 01:04:09;;;;;;;1.92;1.20;;;;;;;;;;5020960;28;20590;-68
2023/10/16 01:06:37;;;;;;;1.90;1.30;;;;;;;;;;5001402;28;20177;-69
2023/10/16 01:09:09;;;;;;;2.15;1.27;;;;;;;;;;4990021;28;20100;-68
2023/10/16 01:11:37;;;;;;;2.17;1.00;;;;;;;;;;5004646;28;20042;-69
2023/10/16 01:14:03;;;;;;;1.98;1.08;;;;;;;;;;5006398;28;20049;-68
2023/10/16 01:16:29;;;;;;;1.90;1.20;;;;;;;;;;5015825;28;20520;-70
2023/10/16 01:18:54;;;;;;;2.13;1.40;;;;;;;;;;5005323;28;20128;-68
2023/10/16 01:21:19;;;;;;;2.47;1.00;;;;;;;;;;5018357;28;20502;-68
2023/10/16 01:23:45;;;;;;;3.40;1.53;;;;;;;;;;5018497;28;20315;-69
2023/10/16 01:26:13;;;;;;;1.60;1.30;;;;;;;;;;5011962;28;20355;-68
2023/10/16 01:28:39;;;;;;;1.45;1.00;;;;;;;;;;5003991;28;20041;-68
2023/10/16 01:31:04;;;;;;;1.55;1.08;;;;;;;;;;4987595;28;20026;-68
2023/10/16 01:33:30;;;;;;;1.85;1.10;;;;;;;;;;4987424;28;20022;-68
2023/10/16 01:35:56;;;;;;;1.75;1.13;;;;;;;;;;4990488;28;20041;-70
2023/10/16 01:38:24;;;;;;;2.15;1.40;;;;;;;;;;4985943;28;20018;-68
2023/10/16 01:43:28;;;;;;;2.50;1.33;;;;;;;;;;5012466;28;20018;-69
2023/10/16 01:45:55;;;;;;;2.55;1.40;;;;;;;;;;5005907;28;20113;-69
2023/10/16 01:48:21;;;;;;;2.10;1.30;;;;;;;;;;5005585;28;20041;-68
2023/10/16 01:50:52;;;;;;;1.95;1.33;;;;;;;;;;4988980;28;20046;-69
2023/10/16 01:53:20;;;;;;;2.40;1.40;;;;;;;;;;4999602;28;20421;-68
2023/10/16 01:55:54;;;;;;;1.98;1.17;;;;;;;;;;5003253;28;20041;-68
2023/10/16 01:58:21;;;;;;;1.83;1.20;;;;;;;;;;5005890;28;20045;-68
2023/10/16 02:00:47;;;;;;;3.70;1.45;;;;;;;;;;4989678;28;20372;-68
2023/10/16 02:03:12;;;;;;;2.13;1.45;;;;;;;;;;4989855;28;20111;-69
2023/10/16 02:05:41;;;;;;;1.65;1.30;;;;;;;;;;5007237;28;20084;-69
2023/10/16 02:08:07;;;;;;;2.80;1.50;;;;;;;;;;5006443;28;20092;-68
2023/10/16 02:10:32;;;;;;;2.67;1.40;;;;;;;;;;5004164;28;20042;-68
2023/10/16 02:12:58;;;;;;;1.48;1.38;;;;;;;;;;5005655;28;20097;-68
2023/10/16 02:15:23;;;;;;;2.60;1.50;;;;;;;;;;5004977;28;20505;-68
2023/10/16 02:17:49;;;;;;;1.98;1.80;;;;;;;;;;4997420;28;20505;-68
2023/10/16 02:20:16;;;;;;;2.55;1.58;;;;;;;;;;4986504;28;20058;-69
2023/10/16 02:22:41;;;;;;;2.17;1.63;;;;;;;;;;5011098;28;20084;-69
2023/10/16 02:25:11;;;;;;;2.20;1.70;;;;;;;;;;5022041;28;20033;-68
2023/10/16 02:27:36;;;;;;;;;;;;;;;;;;5006145;28;20277;-70
2023/10/16 02:32:46;;;;;;;1.88;1.70;;;;;;;;;;4994956;28;20060;-68
2023/10/16 02:35:14;;;;;;;2.17;1.77;;;;;;;;;;5004981;28;20524;-68
2023/10/16 02:37:40;;;;;;;2.75;1.70;;;;;;;;;;4988510;28;20084;-69
2023/10/16 02:40:10;;;;;;;2.17;1.60;;;;;;;;;;4997750;28;20030;-69
2023/10/16 02:42:38;;;;;;;2.38;1.90;;;;;;;;;;5012070;28;20053;-68
2023/10/16 02:45:04;;;;;;;1.77;1.52;;;;;;;;;;5005203;28;20038;-69
2023/10/16 02:47:30;;;;;;;2.60;1.40;;;;;;;;;;5004789;28;20034;-69
2023/10/16 02:49:56;;;;;;;2.22;1.63;;;;;;;;;;4999519;28;20128;-69
2023/10/16 02:52:21;;;;;;;2.35;1.50;;;;;;;;;;4991212;28;20034;-69
2023/10/16 02:54:47;;;;;;;3.07;2.13;;;;;;;;;;5005033;28;20357;-69
2023/10/16 02:57:12;;;;;;;3.35;1.80;;;;;;;;;;5017200;28;20274;-69
2023/10/16 02:59:38;;;;;;;1.90;1.50;;;;;;;;;;5004233;28;20069;-69
2023/10/16 03:02:09;;;;;;;2.20;1.70;;;;;;;;;;4999875;28;20045;-69
2023/10/16 03:04:34;;;;;;;1.92;1.50;;;;;;;;;;5003925;28;20725;-69
2023/10/16 03:07:00;;;;;;;1.77;1.50;;;;;;;;;;5020188;28;20042;-69
2023/10/16 03:09:25;;;;;;;2.60;1.80;;;;;;;;;;5005438;28;20292;-69
2023/10/16 03:11:57;;;;;;;2.63;1.60;;;;;;;;;;4986695;28;20054;-69
2023/10/16 03:14:22;;;;;;;3.28;1.90;;;;;;;;;;4990762;28;20030;-69
2023/10/16 03:16:48;;;;;;;3.10;1.80;;;;;;;;;;5002752;28;20052;-69
2023/10/16 03:19:16;;;;;;;2.83;1.52;;;;;;;;;;5003539;28;20061;-69
2023/10/16 03:21:45;;;;;;;2.17;1.75;;;;;;;;;;4988028;28;20035;-68
2023/10/16 03:24:10;;;;;;;2.70;1.80;;;;;;;;;;5004915;28;20247;-69
2023/10/16 03:26:42;;;;;;;2.07;1.60;;;;;;;;;;5005237;28;20034;-69
2023/10/16 03:29:07;;;;;;;2.55;1.85;;;;;;;;;;4998438;28;20384;-69
2023/10/16 03:31:39;;;;;;;2.35;2.00;;;;;;;;;;4999220;28;20034;-69
2023/10/16 03:34:05;;;;;;;2.28;2.03;;;;;;;;;;5016166;28;20053;-69
2023/10/16 03:36:31;;;;;;;2.67;2.03;;;;;;;;;;4995041;28;20035;-69
2023/10/16 03:38:57;;;;;;;3.42;2.00;;;;;;;;;;4994623;28;20034;-66
2023/10/16 03:43:56;;;;;;;1.95;1.73;;;;;;;;;;5018339;28;20467;-70
2023/10/16 03:46:23;;;;;;;2.90;1.83;;;;;;;;;;5006289;28;20487;-67
2023/10/16 03:48:48;;;;;;;2.53;1.70;;;;;;;;;;4995884;28;20042;-67
2023/10/16 03:51:16;;;;;;;3.20;1.73;;;;;;;;;;5020541;28;20146;-68
2023/10/16 03:53:43;;;;;;;2.40;1.92;;;;;;;;;;5007735;28;20261;-68
2023/10/16 03:56:10;;;;;;;2.00;1.60;;;;;;;;;;5022496;28;20058;-68
2023/10/16 03:58:41;;;;;;;2.30;1.70;;;;;;;;;;5002958;28;20042;-69
2023/10/16 04:01:10;;;;;;;2.53;2.00;;;;;;;;;;4995775;28;20026;-69
2023/10/16 04:03:47;;;;;;;2.15;1.77;;;;;;;;;;4981401;28;20585;-69
2023/10/16 04:06:22;;;;;;;2.40;1.85;;;;;;;;;;4996753;28;20039;-69
2023/10/16 04:08:47;;;;;;;2.00;1.80;;;;;;;;;;5002821;28;20411;-68
2023/10/16 04:11:13;;;;;;;2.80;1.75;;;;;;;;;;4993482;28;20550;-69
2023/10/16 04:13:47;;;;;;;2.10;1.60;;;;;;;;;;5000667;28;20049;-68
2023/10/16 04:16:13;;;;;;;2.85;1.70;;;;;;;;;;5018398;28;20034;-68
2023/10/16 04:18:43;;;;;;;2.40;1.83;;;;;;;;;;5023792;28;20490;-68
2023/10/16 04:31:54;;;;;;;2.55;1.45;;;;;;;;;;5018141;28;20037;-69
2023/10/16 04:36:54;;;;;;;3.75;1.98;;;;;;;;;;5013076;28;20155;-70
2023/10/16 04:50:27;;;;;;;2.30;1.73;;;;;;;;;;4994814;28;20041;-69
2023/10/16 05:01:03;;;;;;;2.25;1.90;;;;;;;;;;4990284;28;20030;-70
2023/10/16 05:03:44;;;;;;;2.45;1.90;;;;;;;;;;4994805;28;20038;-69
2023/10/16 05:06:38;;;;;;;2.13;1.92;;;;;;;;;;4993311;28;20416;-71
2023/10/16 06:14:45;;;;;;;4.70;2.13;;;;;;;;;;4992458;28;20044;-69
2023/10/16 06:17:15;;;;;;;6.47;2.60;;;;;;;;;;4996570;28;20025;-68
2023/10/16 06:19:44;;;;;;;5.47;2.22;;;;;;;;;;4999601;28;20038;-68
2023/10/16 06:22:09;;;;;;;5.75;2.50;;;;;;;;;;4995722;28;20062;-69
2023/10/16 06:24:49;;;;;;;7.55;2.30;;;;;;;;;;4994664;28;20219;-69
2023/10/16 06:27:22;;;;;;;7.60;2.13;;;;;;;;;;5017624;28;20052;-67
2023/10/16 06:29:50;;;;;;;3.70;1.80;;;;;;;;;;5002774;28;20034;-69
2023/10/16 06:32:18;;;;;;;5.88;2.00;;;;;;;;;;5002648;28;20049;-69
2023/10/16 06:34:45;;;;;;;7.82;2.20;;;;;;;;;;4999422;28;20042;-68
2023/10/16 06:37:10;;;;;;;6.78;2.20;;;;;;;;;;4991824;28;20050;-68
2023/10/16 06:39:35;;;;;;;6.00;2.47;;;;;;;;;;5003579;28;20034;-69
2023/10/16 06:42:04;;;;;;;8.97;2.10;;;;;;;;;;5001381;28;20053;-69
2023/10/16 06:44:31;;;;;;;7.55;2.13;;;;;;;;;;4995751;28;20296;-69
2023/10/16 06:46:59;;;;;;;5.70;2.05;;;;;;;;;;4993295;28;20042;-69
2023/10/16 06:49:26;;;;;;;5.43;1.90;;;;;;;;;;5007889;28;20084;-68
2023/10/16 06:51:52;;;;;;;6.25;1.90;;;;;;;;;;4993692;28;20053;-67
2023/10/16 06:54:18;;;;;;;7.40;1.88;;;;;;;;;;4995607;28;20089;-68
2023/10/16 06:56:44;;;;;;;7.05;2.25;;;;;;;;;;5002244;28;20488;-68
2023/10/16 06:59:16;;;;;;;6.37;2.07;;;;;;;;;;4995602;28;20043;-68
2023/10/16 07:01:41;;;;;;;10.88;2.40;;;;;;;;;;4997351;28;20305;-70
2023/10/16 07:04:06;;;;;;;5.78;1.90;;;;;;;;;;5001908;28;20029;-67
2023/10/16 07:06:35;;;;;;;4.97;1.80;;;;;;;;;;5000042;28;20116;-70
2023/10/16 07:09:06;;;;;;;6.63;2.08;;;;;;;;;;5018562;28;20338;-72
2023/10/16 07:11:31;;;;;;;4.45;1.70;;;;;;;;;;5011220;28;20111;-73
2023/10/16 07:13:57;;;;;;;5.53;2.00;;;;;;;;;;4999575;28;20042;-73
2023/10/16 07:16:22;;;;;;;5.37;1.93;;;;;;;;;;4995221;28;20295;-73
2023/10/16 07:18:53;;;;;;;5.35;1.95;;;;;;;;;;5015385;28;20691;-71
2023/10/16 07:21:20;;;;;;;4.18;1.67;;;;;;;;;;4999988;28;20034;-72
2023/10/16 07:23:45;;;;;;;4.95;1.98;;;;;;;;;;5002791;28;20572;-72
2023/10/16 07:26:10;;;;;;;5.72;1.95;;;;;;;;;;5000018;28;20043;-72
2023/10/16 07:28:36;;;;;;;7.68;2.65;;;;;;;;;;5000623;28;20048;-72
2023/10/16 07:31:05;;;;;;;3.70;1.70;;;;;;;;;;5005399;28;20046;-72
2023/10/16 07:33:30;;;;;;;3.58;1.77;;;;;;;;;;4998501;28;20049;-72
2023/10/16 07:35:56;;;;;;;5.38;1.80;;;;;;;;;;4994321;28;20038;-71
2023/10/16 07:38:22;;;;;;;5.55;1.70;;;;;;;;;;4996500;28;20061;-72
2023/10/16 07:40:53;;;;;;;3.42;1.55;;;;;;;;;;4995581;28;20118;-72
2023/10/16 07:43:28;;;;;;;4.10;1.60;;;;;;;;;;4996781;28;20084;-72
2023/10/16 07:48:33;;;;;;;3.90;1.58;;;;;;;;;;5000158;28;20219;-72
2023/10/16 07:51:01;;;;;;;5.18;1.77;;;;;;;;;;5000617;28;20582;-72
2023/10/16 07:53:28;;;;;;;4.85;1.92;;;;;;;;;;5003459;28;21010;-72
2023/10/16 07:55:55;;;;;;;4.45;1.75;;;;;;;;;;5002318;28;20042;-72
2023/10/16 07:58:23;;;;;;;4.25;1.80;;;;;;;;;;4997320;28;20037;-71
2023/10/16 08:03:36;;;;;;;5.45;1.80;;;;;;;;;;5008265;28;20025;-72
2023/10/16 08:06:04;;;;;;;3.88;1.48;;;;;;;;;;5005152;28;20030;-71
2023/10/16 08:08:36;;;;;;;4.25;1.48;;;;;;;;;;5008724;28;20033;-72
2023/10/16 08:11:12;;;;;;;3.25;1.40;;;;;;;;;;5008186;28;20042;-72
2023/10/16 08:13:38;;;;;;;3.85;1.75;;;;;;;;;;4995551;28;20046;-71
2023/10/16 08:16:06;;;;;;;3.03;1.63;;;;;;;;;;4998515;28;20125;-71
2023/10/16 08:18:32;;;;;;;4.38;1.73;;;;;;;;;;4997313;28;20030;-71
2023/10/16 08:21:00;;;;;;;3.55;1.63;;;;;;;;;;5004220;28;20416;-71
2023/10/16 08:23:33;;;;;;;4.05;1.42;;;;;;;;;;4989416;28;20040;-71
2023/10/16 08:26:00;;;;;;;4.68;1.63;;;;;;;;;;5020937;28;20065;-73
2023/10/16 08:28:35;;;;;;;4.72;1.63;;;;;;;;;;5009355;28;20101;-72
2023/10/16 08:31:10;;;;;;;3.38;1.20;;;;;;;;;;5035360;28;20046;-73
2023/10/16 08:33:35;;;;;;;2.22;1.27;;;;;;;;;;4996922;28;20092;-72
2023/10/16 08:36:04;;;;;;;2.63;1.25;;;;;;;;;;5003236;28;20058;-73
2023/10/16 08:38:36;;;;;;;3.75;1.42;;;;;;;;;;5000887;28;20131;-69
2023/10/16 08:41:07;;;;;;;2.53;1.40;;;;;;;;;;5002462;28;20125;-69
2023/10/16 08:43:39;;;;;;;3.22;1.35;;;;;;;;;;5004183;28;20121;-69
2023/10/16 08:46:18;;;;;;;2.75;1.40;;;;;;;;;;5001029;28;20067;-69
2023/10/16 08:48:44;;;;;;;2.88;1.33;;;;;;;;;;4999622;28;20025;-69
2023/10/16 08:51:10;;;;;;;2.88;1.40;;;;;;;;;;5000564;28;20052;-69
2023/10/16 08:53:36;;;;;;;3.58;1.40;;;;;;;;;;5001139;28;20424;-69
2023/10/16 08:56:08;;;;;;;4.05;1.40;;;;;;;;;;4997568;28;20061;-74
2023/10/16 08:58:40;;;;;;;2.85;1.35;;;;;;;;;;4997911;28;20038;-72
2023/10/16 09:01:07;;;;;;;4.13;1.48;;;;;;;;;;4996236;28;20124;-67
2023/10/16 09:03:33;;;;;;;3.72;1.50;;;;;;;;;;5009605;28;20535;-67
2023/10/16 09:06:01;;;;;;;4.80;1.67;;;;;;;;;;5011197;28;20065;-67
2023/10/16 09:08:27;;;;;;;4.03;1.40;;;;;;;;;;4996131;28;20042;-67
2023/10/16 09:10:53;;;;;;;4.15;1.17;;;;;;;;;;4997834;28;20107;-67
2023/10/16 09:13:19;;;;;;;5.13;1.35;;;;;;;;;;4995408;28;20099;-68
2023/10/16 09:15:47;;;;;;;2.67;1.33;;;;;;;;;;4996545;28;20328;-69
2023/10/16 09:18:13;;;;;;;4.43;1.50;;;;;;;;;;4995118;28;20448;-69
2023/10/16 09:20:41;;;;;;;2.80;1.20;;;;;;;;;;4996428;28;20034;-69
2023/10/16 09:23:07;;;;;;;3.60;1.17;;;;;;;;;;4994872;28;20124;-70
2023/10/16 09:25:33;;;;;;;3.28;1.10;;;;;;;;;;4994395;28;20481;-69
2023/10/16 09:27:59;;;;;;;3.22;1.50;;;;;;;;;;4996647;28;20076;-69
2023/10/16 09:30:28;;;;;;;2.92;1.10;;;;;;;;;;4994281;28;20536;-69
2023/10/16 09:32:54;;;;;;;4.63;1.20;;;;;;;;;;4995369;28;20025;-69
2023/10/16 09:35:30;;;;;;;3.33;1.00;;;;;;;;;;4990924;28;20026;-69
2023/10/16 09:38:09;;;;;;;2.22;1.02;;;;;;;;;;4992716;28;20109;-69
2023/10/16 09:40:37;;;;;;;2.30;1.03;;;;;;;;;;4994843;28;20042;-70
2023/10/16 09:43:05;;;;;;;3.10;1.25;;;;;;;;;;4993157;28;20037;-69
2023/10/16 09:45:34;;;;;;;2.85;1.10;;;;;;;;;;4992815;28;20038;-69
2023/10/16 09:48:08;;;;;;;2.05;0.90;;;;;;;;;;4992194;28;20057;-70
2023/10/16 09:50:37;;;;;;;2.33;1.00;;;;;;;;;;4979804;28;20085;-75
2023/10/16 09:53:03;;;;;;;2.70;0.90;;;;;;;;;;4993328;28;20042;-69
2023/10/16 09:55:30;;;;;;;2.00;0.95;;;;;;;;;;5006844;28;20312;-69
2023/10/16 09:57:55;;;;;;;3.83;1.33;;;;;;;;;;4992503;28;20586;-68
2023/10/16 10:02:52;;;;;;;3.08;1.38;;;;;;;;;;4993162;28;20048;-67
2023/10/16 10:05:21;;;;;;;3.97;1.05;;;;;;;;;;4992352;28;20030;-67
2023/10/16 10:07:47;;;;;;;4.60;1.13;;;;;;;;;;4994779;28;20070;-68
2023/10/16 10:12:57;;;;;;;5.57;1.40;;;;;;;;;;4995306;28;20120;-68
2023/10/16 10:15:33;;;;;;;3.25;1.13;;;;;;;;;;4993815;28;20878;-68
2023/10/16 10:18:25;;;;;;;1.98;1.10;;;;;;;;;;4994225;28;20104;-68
2023/10/16 10:20:44;;;;;;;4.45;1.33;;;;;;;;;;4994502;28;20543;-69
2023/10/16 10:23:12;;;;;;;2.97;1.17;;;;;;;;;;4991489;28;20038;-68
2023/10/16 10:25:37;;;;;;;3.45;1.02;;;;;;;;;;4993238;28;20059;-69
2023/10/16 10:28:28;;;;;;;3.25;0.90;;;;;;;;;;4994615;28;20034;-70
2023/10/16 10:30:55;;;;;;;3.85;1.20;;;;;;;;;;4997154;28;20067;-70
2023/10/16 10:33:42;;;;;;;2.40;1.02;;;;;;;;;;4995804;28;20022;-68
2023/10/16 10:36:27;;;;;;;3.17;1.10;;;;;;;;;;4997770;28;20045;-68
2023/10/16 10:39:20;;;;;;;3.55;1.10;;;;;;;;;;4998918;28;20535;-69
2023/10/16 10:42:05;;;;;;;2.72;1.20;;;;;;;;;;5000194;28;20053;-69
2023/10/16 10:44:39;;;;;;;1.88;0.82;;;;;;;;;;5000674;28;20047;-69
2023/10/16 10:47:17;;;;;;;2.67;1.20;;;;;;;;;;4998322;28;20038;-69
2023/10/16 10:49:43;;;;;;;1.70;0.90;;;;;;;;;;4995943;28;20034;-69
2023/10/16 10:52:12;;;;;;;2.20;0.98;;;;;;;;;;5008491;28;20143;-70
2023/10/16 10:54:43;;;;;;;1.90;1.00;;;;;;;;;;5012364;28;20064;-69
2023/10/16 10:57:35;;;;;;;1.80;1.00;;;;;;;;;;5002576;28;20095;-70
2023/10/16 11:05:07;;;;;;;2.25;1.08;;;;;;;;;;5011565;28;20030;-69
2023/10/16 11:07:39;;;;;;;2.55;0.90;;;;;;;;;;5015260;28;20745;-69
2023/10/16 11:10:05;;;;;;;2.00;0.88;;;;;;;;;;4998206;28;20050;-72
2023/10/16 11:12:31;;;;;;;2.15;1.02;;;;;;;;;;4999271;28;20125;-72
2023/10/16 11:14:57;;;;;;;2.25;0.93;;;;;;;;;;4996974;28;20069;-71
2023/10/16 11:17:35;;;;;;;1.92;1.05;;;;;;;;;;5002831;28;20559;-72
2023/10/16 11:22:44;;;;;;;1.83;0.90;;;;;;;;;;4996643;28;20033;-71
2023/10/16 11:25:13;;;;;;;2.63;1.00;;;;;;;;;;5013725;28;20042;-71
2023/10/16 11:27:41;;;;;;;3.53;1.20;;;;;;;;;;5006310;28;20034;-72
2023/10/16 11:30:11;;;;;;;2.65;0.93;;;;;;;;;;5016689;28;20072;-72
2023/10/16 11:32:45;;;;;;;2.55;0.98;;;;;;;;;;5005293;28;20109;-72
2023/10/16 11:35:18;;;;;;;2.42;1.10;;;;;;;;;;5018046;28;20114;-72
2023/10/16 11:37:59;;;;;;;3.65;0.93;;;;;;;;;;4997999;28;20046;-72
2023/10/16 11:40:31;;;;;;;2.53;0.90;;;;;;;;;;5000016;28;20030;-72
2023/10/16 11:42:57;;;;;;;4.50;1.20;;;;;;;;;;4993836;28;20049;-72
2023/10/16 11:45:23;;;;;;;4.00;1.23;;;;;;;;;;5010058;28;20089;-71
2023/10/16 11:48:19;;;;;;;2.17;0.95;;;;;;;;;;5000267;28;20045;-72
2023/10/16 11:50:44;;;;;;;2.90;1.10;;;;;;;;;;5000490;28;20066;-71
2023/10/16 11:53:09;;;;;;;5.68;1.17;;;;;;;;;;5000317;28;20037;-72
2023/10/16 11:55:37;;;;;;;3.08;1.20;;;;;;;;;;5002584;28;20518;-71
2023/10/16 11:58:03;;;;;;;2.17;1.00;;;;;;;;;;4998552;28;20417;-71
2023/10/16 12:00:31;;;;;;;5.05;1.45;;;;;;;;;;4999697;28;20026;-71
2023/10/16 12:02:56;;;;;;;3.03;1.40;;;;;;;;;;4999019;28;20160;-71
2023/10/16 12:05:22;;;;;;;4.95;1.27;;;;;;;;;;5003334;28;20556;-71
2023/10/16 12:07:48;;;;;;;5.60;1.15;;;;;;;;;;5002851;28;20022;-71
2023/10/16 12:10:15;;;;;;;4.13;1.35;;;;;;;;;;5000459;28;20136;-72
2023/10/16 12:12:40;;;;;;;5.60;1.10;;;;;;;;;;5015904;28;20046;-72
2023/10/16 12:15:09;;;;;;;2.92;0.90;;;;;;;;;;5004000;28;20413;-72
2023/10/16 12:17:35;;;;;;;3.23;1.20;;;;;;;;;;5002675;28;20120;-72
2023/10/16 12:20:07;;;;;;;5.47;1.20;;;;;;;;;;4999468;28;20125;-71
2023/10/16 12:22:32;;;;;;;4.50;1.30;;;;;;;;;;5002410;28;20676;-73
2023/10/16 12:24:58;;;;;;;7.20;1.20;;;;;;;;;;4996250;28;20472;-72
2023/10/16 12:27:23;;;;;;;3.72;1.33;;;;;;;;;;5002508;28;20088;-73
2023/10/16 12:29:48;;;;;;;6.43;1.20;;;;;;;;;;5001691;28;20107;-73
2023/10/16 12:32:14;;;;;;;3.35;1.42;;;;;;;;;;5008758;28;20281;-72
2023/10/16 12:34:40;;;;;;;5.55;1.40;;;;;;;;;;4998108;28;20132;-72
2023/10/16 12:37:06;;;;;;;3.80;1.45;;;;;;;;;;5001774;28;20074;-72
2023/10/16 12:39:32;;;;;;;4.10;1.42;;;;;;;;;;5005308;28;20053;-72
2023/10/16 12:42:00;;;;;;;3.47;1.17;;;;;;;;;;5008201;28;20034;-72
2023/10/16 12:44:26;;;;;;;3.35;1.30;;;;;;;;;;5000454;28;20034;-74
2023/10/16 12:46:55;;;;;;;5.18;1.50;;;;;;;;;;5002506;28;20045;-72
2023/10/16 12:49:21;;;;;;;5.80;1.58;;;;;;;;;;5003617;28;20066;-72
2023/10/16 12:51:48;;;;;;;4.25;1.52;;;;;;;;;;5002242;28;20069;-73
2023/10/16 12:54:15;;;;;;;5.55;1.65;;;;;;;;;;5004267;28;20035;-75
2023/10/16 12:56:43;;;;;;;5.28;1.48;;;;;;;;;;5007253;28;20116;-70
2023/10/16 12:59:08;;;;;;;5.80;1.70;;;;;;;;;;4995193;28;20038;-71
2023/10/16 13:01:33;;;;;;;5.15;1.50;;;;;;;;;;5002303;28;20448;-71
2023/10/16 13:04:03;;;;;;;5.93;1.50;;;;;;;;;;5004407;28;20433;-70
2023/10/16 13:06:28;;;;;;;4.90;1.30;;;;;;;;;;5002113;28;20034;-72
2023/10/16 13:08:54;;;;;;;4.88;1.40;;;;;;;;;;5010145;28;20045;-71
2023/10/16 13:11:20;;;;;;;4.90;1.42;;;;;;;;;;5009168;28;20034;-71
2023/10/16 13:13:45;;;;;;;4.23;1.63;;;;;;;;;;5012630;28;20161;-72
2023/10/16 13:16:10;;;;;;;4.32;1.40;;;;;;;;;;5009802;28;20289;-72
2023/10/16 13:18:36;;;;;;;5.68;1.55;;;;;;;;;;5025751;28;20483;-72
2023/10/16 13:21:07;;;;;;;5.53;1.65;;;;;;;;;;5014074;28;20575;-72
2023/10/16 13:23:34;;;;;;;6.45;1.52;;;;;;;;;;4997603;28;20033;-73
2023/10/16 13:25:59;;;;;;;5.18;1.75;;;;;;;;;;5011082;28;20038;-72
2023/10/16 13:28:25;;;;;;;4.22;1.60;;;;;;;;;;5025492;28;20033;-72
2023/10/16 13:30:52;;;;;;;5.28;1.35;;;;;;;;;;4995293;28;20038;-73
2023/10/16 13:33:17;;;;;;;4.97;1.42;;;;;;;;;;4990723;28;20060;-70
2023/10/16 13:35:43;;;;;;;5.40;1.60;;;;;;;;;;5009187;28;20105;-70
2023/10/16 13:38:08;;;;;;;4.03;1.30;;;;;;;;;;5007781;28;20064;-70
2023/10/16 13:40:35;;;;;;;4.78;1.77;;;;;;;;;;5004256;28;20141;-70
2023/10/16 13:43:01;;;;;;;3.58;1.30;;;;;;;;;;5009093;28;20026;-71
2023/10/16 13:45:27;;;;;;;4.47;1.30;;;;;;;;;;5006612;28;20104;-71
2023/10/16 13:47:53;;;;;;;4.07;1.40;;;;;;;;;;5002789;28;20394;-71
2023/10/16 13:50:25;;;;;;;3.78;1.35;;;;;;;;;;5009701;28;20122;-70
2023/10/16 13:52:50;;;;;;;3.58;1.40;;;;;;;;;;5010112;28;20038;-70
2023/10/16 13:55:20;;;;;;;4.70;1.30;;;;;;;;;;5030579;28;20038;-71
2023/10/16 13:57:47;;;;;;;;;;;;;;;;;;5032913;28;20068;-71
2023/10/16 14:00:31;;;;;;;8.45;1.27;;;;;;;;;;5022900;28;19905;-70
2023/10/16 14:03:04;;;;;;;5.45;1.52;;;;;;;;;;5033325;28;20025;-68
2023/10/16 14:05:30;;;;;;;6.72;1.92;;;;;;;;;;5020769;28;20029;-70
2023/10/16 14:07:55;;;;;;;4.93;1.60;;;;;;;;;;5020568;28;20038;-71
2023/10/16 14:10:21;;;;;;;4.70;1.17;;;;;;;;;;5018776;28;20041;-71
2023/10/16 14:12:53;;;;;;;3.25;1.13;;;;;;;;;;5011068;28;20122;-70
2023/10/16 14:15:19;;;;;;;4.68;1.40;;;;;;;;;;5017489;28;20146;-71
2023/10/16 14:17:47;;;;;;;2.70;0.98;;;;;;;;;;5001620;28;20846;-72
2023/10/16 14:20:34;;;;;;;3.00;0.98;;;;;;;;;;5008858;28;20371;-70
2023/10/16 14:22:59;;;;;;;2.53;1.10;;;;;;;;;;5012730;28;20092;-72
2023/10/16 14:25:32;;;;;;;3.05;1.00;;;;;;;;;;4999188;28;20061;-72
2023/10/16 14:27:58;;;;;;;3.90;1.17;;;;;;;;;;4995338;28;20042;-72
2023/10/16 14:30:25;;;;;;;3.40;0.93;;;;;;;;;;4994286;28;20193;-72
2023/10/16 14:32:51;;;;;;;3.10;0.73;;;;;;;;;;4996821;28;20065;-75
2023/10/16 14:35:16;;;;;;;4.30;1.03;;;;;;;;;;4995972;28;20123;-76
2023/10/16 14:37:43;;;;;;;3.80;1.08;;;;;;;;;;4996440;28;20360;-77
2023/10/16 14:40:08;;;;;;;3.72;1.20;;;;;;;;;;4995835;28;21010;-73
2023/10/16 14:42:33;;;;;;;3.90;1.20;;;;;;;;;;4992193;28;20069;-73
2023/10/16 14:44:59;;;;;;;3.70;1.10;;;;;;;;;;4996430;28;20069;-72
2023/10/16 14:47:25;;;;;;;4.32;0.90;;;;;;;;;;4995624;28;20289;-74
2023/10/16 14:49:50;;;;;;;5.10;1.20;;;;;;;;;;4998802;28;20712;-77
2023/10/16 14:52:16;;;;;;;5.60;1.10;;;;;;;;;;4995570;28;20368;-73
2023/10/16 14:54:42;;;;;;;3.38;1.17;;;;;;;;;;5010243;28;20356;-69
2023/10/16 14:57:08;;;;;;;4.40;1.30;;;;;;;;;;4993440;28;20038;-69
2023/10/16 14:59:34;;;;;;;2.40;1.17;;;;;;;;;;4996079;28;20034;-70
2023/10/16 15:02:00;;;;;;;4.53;1.40;;;;;;;;;;5009046;28;20030;-68
2023/10/16 15:04:25;;;;;;;4.40;1.35;;;;;;;;;;4995165;28;20050;-68
2023/10/16 15:06:51;;;;;;;2.75;1.02;;;;;;;;;;4993357;28;20518;-68
2023/10/16 15:09:16;;;;;;;2.10;1.00;;;;;;;;;;4995403;28;20049;-68
2023/10/16 15:11:43;;;;;;;3.03;1.35;;;;;;;;;;4995257;28;20104;-68
2023/10/16 15:14:08;;;;;;;2.85;1.20;;;;;;;;;;4994712;28;20113;-68
2023/10/16 15:16:33;;;;;;;2.28;1.20;;;;;;;;;;4994816;28;20091;-69
2023/10/16 15:19:00;;;;;;;3.85;1.30;;;;;;;;;;4993930;28;20031;-69
2023/10/16 15:21:25;;;;;;;3.85;1.35;;;;;;;;;;4993410;28;20420;-68
2023/10/16 15:23:50;;;;;;;3.50;1.23;;;;;;;;;;4994346;28;20045;-69
2023/10/16 15:26:16;;;;;;;3.30;1.30;;;;;;;;;;4994365;28;20034;-69
2023/10/16 15:28:41;;;;;;;2.47;1.10;;;;;;;;;;4994965;28;20496;-70
2023/10/16 15:31:06;;;;;;;4.95;1.50;;;;;;;;;;4998427;28;20347;-68
2023/10/16 15:33:32;;;;;;;4.83;1.53;;;;;;;;;;4994427;28;20045;-69
2023/10/16 15:35:59;;;;;;;3.75;1.40;;;;;;;;;;4994293;28;20905;-69
2023/10/16 15:38:25;;;;;;;4.32;1.40;;;;;;;;;;5011492;28;20147;-70
2023/10/16 15:40:53;;;;;;;4.15;1.52;;;;;;;;;;4998357;28;20132;-66
2023/10/16 15:43:19;;;;;;;3.85;1.63;;;;;;;;;;4991745;28;20042;-69
2023/10/16 15:45:46;;;;;;;4.97;1.52;;;;;;;;;;4992411;28;20125;-69
2023/10/16 15:48:12;;;;;;;3.72;1.50;;;;;;;;;;4991121;28;20037;-68
2023/10/16 15:50:37;;;;;;;3.17;1.55;;;;;;;;;;4992809;28;20046;-69
2023/10/16 15:53:04;;;;;;;5.15;1.42;;;;;;;;;;4989523;28;20030;-69
2023/10/16 15:55:29;;;;;;;2.95;1.70;;;;;;;;;;4990110;28;20132;-69
2023/10/16 15:57:56;;;;;;;3.95;1.83;;;;;;;;;;4989994;28;20156;-69
2023/10/16 16:00:28;;;;;;;3.75;1.70;;;;;;;;;;4988828;28;20053;-69
2023/10/16 16:02:57;;;;;;;5.50;1.98;;;;;;;;;;4996161;28;20048;-69
2023/10/16 16:05:23;;;;;;;8.80;2.30;;;;;;;;;;4992928;28;20038;-75
2023/10/16 16:07:51;;;;;;;4.85;1.90;;;;;;;;;;4993841;28;20041;-72
2023/10/16 16:10:17;;;;;;;4.07;2.05;;;;;;;;;;4994265;28;20053;-69
2023/10/16 16:12:49;;;;;;;6.13;2.00;;;;;;;;;;4997496;28;20037;-71
2023/10/16 16:15:17;;;;;;;5.18;2.08;;;;;;;;;;4996638;28;20057;-71
2023/10/16 16:17:45;;;;;;;3.83;1.63;;;;;;;;;;4994950;28;20049;-71
2023/10/16 16:20:16;;;;;;;4.85;1.90;;;;;;;;;;4995045;28;20149;-72
2023/10/16 16:22:44;;;;;;;4.10;1.85;;;;;;;;;;4995925;28;20042;-73
2023/10/16 16:25:13;;;;;;;4.40;1.90;;;;;;;;;;4998161;28;20038;-70
2023/10/16 16:27:41;;;;;;;3.85;1.92;;;;;;;;;;4996499;28;20065;-70
2023/10/16 16:30:07;;;;;;;4.85;1.90;;;;;;;;;;4996172;28;20042;-72
2023/10/16 16:32:33;;;;;;;4.45;1.77;;;;;;;;;;4993822;28;20120;-72
2023/10/16 16:35:00;;;;;;;16.05;5.93;;;;;;;;;;4993933;28;20038;-71
2023/10/16 16:37:25;;;;;;;57.72;18.13;;;;;;;;;;4996396;28;20038;-70
2023/10/16 16:39:50;;;;;;;37.80;15.90;;;;;;;;;;4997463;28;20033;-70
2023/10/16 16:42:16;;;;;;;25.27;12.10;;;;;;;;;;4999830;28;20054;-68
2023/10/16 16:44:42;;;;;;;21.23;9.55;;;;;;;;;;4997063;28;20061;-69
2023/10/16 16:47:08;;;;;;;21.90;8.60;;;;;;;;;;5001347;28;20057;-70
2023/10/16 16:49:33;;;;;;;12.45;6.05;;;;;;;;;;4999834;28;20087;-69
2023/10/16 16:52:00;;;;;;;10.20;4.30;;;;;;;;;;4998271;28;20104;-69